Time;durP1;ratioP1;P1;durP2;ratioP2;P2;SDS_P1;SDS_P2;PMS_P1;PMS_P2;Temp;Humidity;BMP_temperature;BMP_pressure;BME280_temperature;BME280_humidity;BME280_pressure;Samples;Min_cycle;Max_cycle;Signal;HPM_P1;HPM_P2
2021/10/19 00:02:24;;;;;;;15.27;13.80;;;9.10;71.80;;;;;;5036268;28;20421;-83
2021/10/19 00:04:50;;;;;;;14.87;13.53;;;9.20;71.40;;;;;;5036520;28;20462;-84
2021/10/19 00:07:15;;;;;;;14.37;13.07;;;9.30;71.50;;;;;;5035859;28;20539;-83
2021/10/19 00:09:41;;;;;;;13.70;12.40;;;9.20;71.50;;;;;;5036501;28;20211;-84
2021/10/19 00:12:07;;;;;;;14.90;13.53;;;9.20;71.40;;;;;;5035980;28;20246;-82
2021/10/19 00:14:32;;;;;;;14.30;12.97;;;9.20;71.50;;;;;;5036515;28;20184;-83
2021/10/19 00:16:58;;;;;;;13.90;12.60;;;9.20;71.50;;;;;;5036296;28;20195;-83
2021/10/19 00:19:23;;;;;;;14.30;13.00;;;9.20;71.50;;;;;;5036224;28;20191;-83
2021/10/19 00:21:49;;;;;;;15.00;13.10;;;9.10;70.90;;;;;;5036219;28;20615;-83
2021/10/19 00:24:15;;;;;;;14.77;13.13;;;9.10;71.30;;;;;;5036357;28;20204;-83
2021/10/19 00:26:41;;;;;;;15.57;14.13;;;9.10;71.40;;;;;;5036077;28;20426;-84
2021/10/19 00:29:06;;;;;;;14.50;13.10;;;9.10;71.90;;;;;;5036305;28;20625;-83
2021/10/19 00:31:32;;;;;;;14.70;13.23;;;9.10;72.40;;;;;;5036328;28;20183;-84
2021/10/19 00:33:57;;;;;;;14.47;13.10;;;9.10;71.80;;;;;;5036137;28;20239;-83
2021/10/19 00:36:23;;;;;;;15.57;14.00;;;9.10;71.00;;;;;;5035764;28;20191;-83
2021/10/19 00:38:49;;;;;;;15.43;13.93;;;9.10;71.40;;;;;;5035452;28;20180;-84
2021/10/19 00:41:14;;;;;;;14.83;13.33;;;9.00;70.50;;;;;;5035557;28;20271;-83
2021/10/19 00:43:40;;;;;;;14.83;13.43;;;9.00;71.30;;;;;;5035649;28;20215;-83
2021/10/19 00:46:12;;;;;;;14.27;12.97;;;9.10;71.30;;;;;;5035969;28;20187;-84
2021/10/19 00:48:40;;;;;;;16.37;14.87;;;9.10;71.30;;;;;;5035631;28;20417;-84
2021/10/19 00:51:10;;;;;;;14.67;13.10;;;9.00;71.20;;;;;;5035911;28;20423;-84
2021/10/19 00:53:36;;;;;;;13.70;12.40;;;9.00;71.20;;;;;;5035267;28;20426;-84
2021/10/19 00:56:01;;;;;;;14.57;13.17;;;9.00;71.50;;;;;;5035568;28;20866;-82
2021/10/19 00:58:27;;;;;;;15.20;13.73;;;9.00;71.30;;;;;;5035189;28;20422;-83
2021/10/19 01:00:53;;;;;;;14.10;12.80;;;9.00;71.50;;;;;;5035582;28;20442;-83
2021/10/19 01:03:18;;;;;;;13.90;11.53;;;9.00;71.20;;;;;;5035208;28;20294;-83
2021/10/19 01:05:44;;;;;;;14.27;12.83;;;8.90;71.60;;;;;;5035370;28;20696;-83
2021/10/19 01:08:11;;;;;;;13.83;12.50;;;8.90;71.50;;;;;;5035143;28;20176;-83
2021/10/19 01:10:37;;;;;;;14.50;13.10;;;8.90;71.80;;;;;;5035496;28;20237;-84
2021/10/19 01:13:03;;;;;;;13.00;11.73;;;9.00;71.20;;;;;;5035081;28;20536;-83
2021/10/19 01:15:32;;;;;;;14.10;12.80;;;9.00;71.50;;;;;;5035454;28;20453;-83
2021/10/19 01:17:58;;;;;;;13.70;12.50;;;8.90;71.80;;;;;;5035129;28;20665;-83
2021/10/19 01:20:30;;;;;;;14.00;12.70;;;8.90;72.10;;;;;;5035065;28;20951;-82
2021/10/19 01:22:57;;;;;;;13.57;12.17;;;8.90;72.00;;;;;;5034708;28;20969;-81
2021/10/19 01:25:25;;;;;;;13.43;12.20;;;8.90;72.30;;;;;;5035102;28;20902;-81
2021/10/19 01:28:00;;;;;;;14.17;12.73;;;8.90;71.80;;;;;;5018190;28;20776;-83
2021/10/19 01:30:26;;;;;;;14.73;13.33;;;8.90;72.50;;;;;;5034684;28;20921;-82
2021/10/19 01:32:53;;;;;;;15.43;13.93;;;8.90;72.50;;;;;;5034971;28;20906;-82
2021/10/19 01:35:29;;;;;;;13.80;12.50;;;8.90;72.40;;;;;;5035459;28;20445;-82
2021/10/19 01:37:55;;;;;;;13.77;12.57;;;9.00;71.90;;;;;;5035264;28;20505;-82
2021/10/19 01:40:20;;;;;;;14.63;13.27;;;8.90;71.50;;;;;;5035409;28;20510;-82
2021/10/19 01:42:46;;;;;;;13.10;11.90;;;9.00;71.90;;;;;;5035447;28;20275;-82
2021/10/19 01:45:18;;;;;;;13.30;11.67;;;8.90;72.00;;;;;;5035136;28;20184;-82
2021/10/19 01:47:44;;;;;;;14.60;13.20;;;9.00;71.20;;;;;;5018595;28;20184;-82
2021/10/19 01:50:13;;;;;;;13.63;12.47;;;9.00;71.20;;;;;;5035194;28;20852;-82
2021/10/19 01:52:39;;;;;;;12.53;11.50;;;9.00;71.80;;;;;;5035038;28;20410;-82
2021/10/19 01:55:07;;;;;;;14.20;12.80;;;9.00;71.70;;;;;;5035371;28;20430;-82
2021/10/19 01:57:33;;;;;;;12.70;11.47;;;9.00;72.00;;;;;;5035116;28;20468;-81
2021/10/19 01:59:59;;;;;;;13.20;12.03;;;9.00;72.00;;;;;;5035013;28;20922;-82
2021/10/19 02:02:25;;;;;;;13.27;11.97;;;9.10;72.40;;;;;;5035074;28;20418;-82
2021/10/19 02:04:51;;;;;;;12.03;10.83;;;9.10;72.60;;;;;;5034688;28;20254;-82
2021/10/19 02:07:17;;;;;;;13.00;11.70;;;9.10;71.60;;;;;;5034537;28;20450;-81
2021/10/19 02:09:42;;;;;;;13.93;12.63;;;9.10;72.40;;;;;;5034953;28;20624;-82
2021/10/19 02:12:08;;;;;;;14.70;13.17;;;9.10;71.30;;;;;;5034390;28;20426;-82
2021/10/19 02:14:34;;;;;;;14.53;12.20;;;9.20;71.40;;;;;;5053658;28;20179;-82
2021/10/19 02:16:59;;;;;;;13.90;12.50;;;9.20;70.30;;;;;;5037393;28;20935;-82
2021/10/19 02:19:27;;;;;;;12.37;11.20;;;9.20;71.50;;;;;;5038383;28;20176;-82
2021/10/19 02:21:53;;;;;;;13.23;12.03;;;9.20;71.40;;;;;;5038721;28;20176;-82
2021/10/19 02:24:19;;;;;;;13.70;12.40;;;9.20;71.00;;;;;;5038381;28;20515;-82
2021/10/19 02:26:46;;;;;;;12.73;11.53;;;9.20;71.40;;;;;;5038489;28;20275;-82
2021/10/19 02:29:12;;;;;;;15.70;12.73;;;9.30;71.40;;;;;;5056602;28;20428;-82
2021/10/19 02:31:38;;;;;;;14.07;12.67;;;9.30;70.10;;;;;;5038331;28;20406;-82
2021/10/19 02:34:04;;;;;;;13.97;12.57;;;9.30;70.60;;;;;;5038318;28;20472;-82
2021/10/19 02:36:32;;;;;;;13.73;12.33;;;9.30;69.80;;;;;;5038278;28;20202;-82
2021/10/19 02:39:01;;;;;;;14.17;12.80;;;9.30;69.60;;;;;;5038015;28;20263;-82
2021/10/19 02:41:28;;;;;;;13.13;11.90;;;9.30;69.50;;;;;;5022403;28;20446;-82
2021/10/19 02:43:54;;;;;;;15.63;14.23;;;9.20;69.40;;;;;;5038324;28;20458;-82
2021/10/19 02:46:21;;;;;;;13.67;12.47;;;9.20;69.30;;;;;;5056018;28;20186;-81
2021/10/19 02:48:48;;;;;;;14.13;12.40;;;9.20;70.50;;;;;;5038133;28;20418;-80
2021/10/19 02:51:13;;;;;;;13.20;11.80;;;9.20;70.00;;;;;;5038240;28;20419;-82
2021/10/19 02:53:39;;;;;;;13.27;12.07;;;9.20;70.50;;;;;;5055957;28;20854;-82
2021/10/19 02:56:05;;;;;;;12.27;11.10;;;9.20;69.70;;;;;;5056157;28;20169;-81
2021/10/19 02:58:30;;;;;;;13.27;11.97;;;9.20;71.00;;;;;;5038375;28;20203;-82
2021/10/19 03:00:56;;;;;;;13.67;12.47;;;9.20;70.30;;;;;;5038366;28;20184;-82
2021/10/19 03:03:21;;;;;;;13.40;12.10;;;9.10;71.00;;;;;;5038077;28;20210;-82
2021/10/19 03:05:47;;;;;;;11.53;10.43;;;9.20;70.10;;;;;;5038045;28;20212;-82
2021/10/19 03:08:13;;;;;;;13.17;11.87;;;9.20;70.10;;;;;;5037649;28;20188;-82
2021/10/19 03:10:38;;;;;;;13.13;11.80;;;9.20;70.30;;;;;;5038121;28;20183;-82
2021/10/19 03:13:04;;;;;;;14.40;13.10;;;9.20;70.70;;;;;;5037591;28;20192;-84
2021/10/19 03:15:30;;;;;;;13.07;11.87;;;9.30;70.60;;;;;;5037798;28;20176;-84
2021/10/19 03:17:55;;;;;;;12.93;11.83;;;9.20;70.10;;;;;;5037375;28;20183;-84
2021/10/19 03:20:21;;;;;;;15.27;12.60;;;9.20;70.20;;;;;;5055875;28;20168;-84
2021/10/19 03:22:46;;;;;;;13.57;11.60;;;9.30;70.50;;;;;;5038071;28;20210;-84
2021/10/19 03:25:12;;;;;;;13.17;12.13;;;9.20;70.40;;;;;;5037626;28;20207;-83
2021/10/19 03:27:38;;;;;;;12.80;11.60;;;9.30;71.40;;;;;;5037556;28;20570;-83
2021/10/19 03:30:05;;;;;;;13.90;12.67;;;9.30;71.10;;;;;;5038067;28;20173;-83
2021/10/19 03:32:31;;;;;;;14.77;13.27;;;9.30;70.60;;;;;;5038107;28;20176;-83
2021/10/19 03:34:58;;;;;;;13.70;12.50;;;9.30;70.50;;;;;;5037850;28;20564;-83
2021/10/19 03:37:24;;;;;;;12.13;11.00;;;9.40;70.50;;;;;;5037102;28;20183;-83
2021/10/19 03:39:50;;;;;;;12.90;11.80;;;9.40;71.00;;;;;;5037355;28;20431;-83
2021/10/19 03:42:16;;;;;;;13.30;12.10;;;9.50;71.10;;;;;;5037031;28;20418;-82
2021/10/19 03:44:41;;;;;;;12.57;11.50;;;9.40;71.10;;;;;;5055045;28;20210;-82
2021/10/19 03:47:07;;;;;;;12.33;11.13;;;9.50;71.10;;;;;;5036863;28;20853;-83
2021/10/19 03:49:33;;;;;;;12.67;11.57;;;9.50;70.90;;;;;;5036876;28;20498;-82
2021/10/19 03:51:59;;;;;;;12.77;11.70;;;9.50;71.80;;;;;;5036921;28;20636;-82
2021/10/19 03:54:25;;;;;;;12.33;11.20;;;9.50;70.80;;;;;;5037228;28;20457;-81
2021/10/19 03:56:51;;;;;;;13.37;11.83;;;9.50;71.70;;;;;;5036568;28;20414;-83
2021/10/19 03:59:16;;;;;;;12.80;11.50;;;9.50;71.60;;;;;;5037259;28;20580;-82
2021/10/19 04:01:42;;;;;;;13.13;12.00;;;9.60;71.90;;;;;;5036382;28;20210;-82
2021/10/19 04:04:07;;;;;;;13.27;12.00;;;9.60;70.60;;;;;;5036505;28;20640;-82
2021/10/19 04:06:33;;;;;;;12.83;11.73;;;9.60;70.90;;;;;;5036757;28;20183;-82
2021/10/19 04:08:59;;;;;;;11.83;10.70;;;9.60;70.90;;;;;;5036952;28;20176;-81
2021/10/19 04:11:24;;;;;;;12.03;10.80;;;9.60;70.10;;;;;;5036569;28;20186;-81
2021/10/19 04:13:50;;;;;;;13.20;10.80;;;9.60;70.70;;;;;;5036456;28;20191;-81
2021/10/19 04:16:16;;;;;;;14.10;11.17;;;9.60;69.70;;;;;;5035631;28;20180;-81
2021/10/19 04:18:41;;;;;;;12.40;9.80;;;9.60;69.80;;;;;;5053249;28;20184;-81
2021/10/19 04:21:07;;;;;;;10.73;9.90;;;9.70;69.40;;;;;;5035467;28;20187;-81
2021/10/19 04:23:33;;;;;;;11.67;10.70;;;9.70;69.40;;;;;;5035365;28;20209;-81
2021/10/19 04:25:58;;;;;;;13.73;11.50;;;9.80;69.60;;;;;;5035400;28;20763;-81
2021/10/19 04:28:24;;;;;;;11.33;10.23;;;9.80;69.80;;;;;;5034916;28;20544;-81
2021/10/19 04:30:51;;;;;;;12.73;11.53;;;9.80;69.00;;;;;;5035076;28;20176;-81
2021/10/19 04:33:17;;;;;;;11.83;10.73;;;9.90;69.00;;;;;;5035518;28;20526;-81
2021/10/19 04:35:43;;;;;;;11.80;10.80;;;9.80;68.80;;;;;;5034978;28;20477;-80
2021/10/19 04:38:09;;;;;;;11.63;10.60;;;9.90;68.00;;;;;;5034516;28;21033;-81
2021/10/19 04:40:35;;;;;;;11.53;10.67;;;9.90;67.20;;;;;;5035106;28;20494;-83
2021/10/19 04:43:00;;;;;;;12.50;11.60;;;9.90;67.00;;;;;;5034775;28;20526;-82
2021/10/19 04:45:27;;;;;;;13.53;10.77;;;9.80;67.30;;;;;;5035226;28;20203;-83
2021/10/19 04:47:57;;;;;;;12.40;11.30;;;9.80;66.80;;;;;;5034770;28;20199;-81
2021/10/19 04:50:23;;;;;;;10.90;9.80;;;9.80;67.30;;;;;;5035160;28;20418;-82
2021/10/19 04:52:48;;;;;;;13.10;11.90;;;9.80;67.60;;;;;;5034782;28;20407;-83
2021/10/19 04:55:14;;;;;;;10.73;9.63;;;9.80;67.80;;;;;;5029812;28;20480;-83
2021/10/19 04:57:40;;;;;;;11.13;10.23;;;9.90;67.50;;;;;;5034221;28;20240;-82
2021/10/19 05:00:06;;;;;;;11.90;10.90;;;9.90;67.40;;;;;;5019606;28;20279;-81
2021/10/19 05:02:32;;;;;;;11.70;10.70;;;9.90;67.00;;;;;;5014673;28;20188;-83
2021/10/19 05:04:58;;;;;;;12.00;10.90;;;9.90;67.10;;;;;;5032263;28;20459;-83
2021/10/19 05:07:24;;;;;;;12.30;11.10;;;9.90;67.20;;;;;;5014654;28;20172;-84
2021/10/19 05:09:50;;;;;;;12.80;11.70;;;9.90;66.90;;;;;;5015323;28;20271;-82
2021/10/19 05:12:15;;;;;;;11.97;10.77;;;10.00;66.50;;;;;;5014777;28;20611;-83
2021/10/19 05:14:41;;;;;;;12.63;11.53;;;10.00;66.30;;;;;;5015168;28;20451;-83
2021/10/19 05:17:07;;;;;;;11.30;10.30;;;10.00;65.90;;;;;;5025036;28;20478;-83
2021/10/19 05:19:32;;;;;;;12.90;11.70;;;10.00;65.90;;;;;;5034791;28;20179;-81
2021/10/19 05:21:58;;;;;;;12.87;11.77;;;10.10;66.20;;;;;;5034155;28;20187;-81
2021/10/19 05:24:24;;;;;;;12.33;11.23;;;10.10;66.90;;;;;;5033894;28;20290;-81
2021/10/19 05:26:49;;;;;;;12.57;11.50;;;10.10;67.40;;;;;;5034195;28;20553;-81
2021/10/19 05:29:15;;;;;;;12.60;11.43;;;10.00;67.30;;;;;;5034681;28;20271;-81
2021/10/19 05:31:41;;;;;;;13.67;12.37;;;10.00;68.00;;;;;;5034936;28;20171;-81
2021/10/19 05:34:07;;;;;;;11.90;10.50;;;9.90;69.60;;;;;;5034306;28;20419;-81
2021/10/19 05:36:32;;;;;;;14.17;12.77;;;9.90;70.00;;;;;;5034703;28;20184;-79
2021/10/19 05:38:58;;;;;;;13.53;9.60;;;10.00;69.50;;;;;;5034265;28;20180;-81
2021/10/19 05:41:23;;;;;;;12.10;11.00;;;10.00;69.50;;;;;;5034392;28;20188;-80
2021/10/19 05:43:49;;;;;;;13.23;11.80;;;10.00;69.30;;;;;;5034465;28;20204;-80
2021/10/19 05:46:15;;;;;;;12.30;11.03;;;10.00;68.40;;;;;;5034609;28;20176;-80
2021/10/19 05:48:40;;;;;;;12.80;11.50;;;10.00;69.30;;;;;;5034438;28;20180;-80
2021/10/19 05:51:06;;;;;;;11.60;10.43;;;10.00;69.10;;;;;;5038632;28;20179;-80
2021/10/19 05:53:32;;;;;;;13.43;12.00;;;10.10;69.80;;;;;;5038478;28;20543;-77
2021/10/19 05:55:57;;;;;;;12.07;11.00;;;10.10;69.70;;;;;;5037817;28;20192;-78
2021/10/19 05:58:23;;;;;;;13.30;12.10;;;10.10;71.20;;;;;;5038104;28;20184;-78
2021/10/19 06:00:50;;;;;;;13.77;12.47;;;10.10;70.00;;;;;;5038026;28;20544;-78
2021/10/19 06:03:15;;;;;;;13.37;11.97;;;10.10;70.60;;;;;;5037877;28;20242;-79
2021/10/19 06:05:41;;;;;;;16.50;13.43;;;10.10;69.50;;;;;;5037806;28;20454;-80
2021/10/19 06:08:07;;;;;;;12.90;11.60;;;10.20;70.30;;;;;;5037592;28;20317;-79
2021/10/19 06:10:33;;;;;;;13.10;11.80;;;10.10;70.60;;;;;;5037460;28;20172;-80
2021/10/19 06:12:58;;;;;;;13.23;11.80;;;10.10;70.70;;;;;;5037525;28;20270;-82
2021/10/19 06:15:25;;;;;;;13.53;12.23;;;10.10;69.70;;;;;;5037333;28;20176;-82
2021/10/19 06:17:51;;;;;;;13.77;12.40;;;10.10;69.50;;;;;;5037103;28;20656;-81
2021/10/19 06:20:17;;;;;;;13.10;11.90;;;10.10;69.70;;;;;;5037264;28;20425;-81
2021/10/19 06:22:43;;;;;;;13.00;11.20;;;10.10;70.90;;;;;;5037115;28;20419;-82
2021/10/19 06:25:09;;;;;;;14.20;12.20;;;10.10;70.80;;;;;;5037390;28;20330;-82
2021/10/19 06:27:35;;;;;;;13.23;11.97;;;10.20;70.30;;;;;;5036593;28;20460;-81
2021/10/19 06:30:02;;;;;;;13.73;12.23;;;10.20;70.20;;;;;;5037241;28;20882;-83
2021/10/19 06:32:28;;;;;;;15.53;11.90;;;10.30;70.00;;;;;;5036709;28;20444;-83
2021/10/19 06:34:53;;;;;;;12.87;11.70;;;10.30;69.90;;;;;;5036715;28;20418;-82
2021/10/19 06:37:19;;;;;;;19.00;13.60;;;10.30;69.60;;;;;;5035317;28;20179;-83
2021/10/19 06:39:45;;;;;;;15.37;12.63;;;10.30;70.20;;;;;;5021028;28;20204;-83
2021/10/19 06:42:10;;;;;;;15.13;12.47;;;10.40;71.60;;;;;;5017109;28;20191;-82
2021/10/19 06:44:36;;;;;;;14.47;11.90;;;10.50;71.80;;;;;;5017585;28;20212;-82
2021/10/19 06:47:02;;;;;;;16.60;14.20;;;10.50;71.70;;;;;;5017301;28;20675;-82
2021/10/19 06:49:27;;;;;;;15.60;12.70;;;10.50;71.80;;;;;;5048924;28;20208;-82
2021/10/19 06:51:53;;;;;;;14.70;11.60;;;10.50;71.90;;;;;;5037327;28;20176;-82
2021/10/19 06:54:18;;;;;;;13.27;11.13;;;10.60;72.20;;;;;;5036959;28;20555;-82
2021/10/19 06:56:44;;;;;;;12.37;10.70;;;10.60;71.80;;;;;;5036842;28;20180;-81
2021/10/19 06:59:10;;;;;;;14.23;12.93;;;10.70;71.90;;;;;;5035973;28;20551;-83
2021/10/19 07:01:35;;;;;;;13.67;11.43;;;10.70;71.80;;;;;;5034215;28;20560;-82
2021/10/19 07:04:01;;;;;;;11.53;10.43;;;10.80;71.90;;;;;;5018890;28;20613;-82
2021/10/19 07:06:27;;;;;;;11.33;10.30;;;10.90;72.00;;;;;;5016614;28;20616;-83
2021/10/19 07:08:53;;;;;;;12.10;10.87;;;10.90;71.60;;;;;;5016397;28;20216;-82
2021/10/19 07:11:20;;;;;;;11.30;10.20;;;10.90;72.00;;;;;;5016263;28;20180;-83
2021/10/19 07:13:45;;;;;;;14.50;11.57;;;10.90;72.00;;;;;;5016285;28;20500;-83
2021/10/19 07:16:11;;;;;;;12.70;11.40;;;11.00;73.00;;;;;;5016456;28;20416;-83
2021/10/19 07:18:36;;;;;;;20.53;11.77;;;11.00;72.60;;;;;;5016446;28;20185;-83
2021/10/19 07:21:02;;;;;;;12.87;11.40;;;11.00;72.50;;;;;;5016020;28;20184;-83
2021/10/19 07:23:28;;;;;;;13.13;10.57;;;11.00;70.00;;;;;;5016480;28;20218;-83
2021/10/19 07:25:53;;;;;;;12.63;11.47;;;11.00;69.80;;;;;;5033765;28;20183;-83
2021/10/19 07:28:19;;;;;;;11.43;10.43;;;10.90;68.50;;;;;;5016259;28;20177;-83
2021/10/19 07:30:45;;;;;;;12.20;11.07;;;10.90;67.40;;;;;;5034141;28;20176;-83
2021/10/19 07:33:12;;;;;;;12.10;10.97;;;10.90;66.80;;;;;;5014145;28;20176;-83
2021/10/19 07:35:38;;;;;;;13.77;11.27;;;11.00;66.50;;;;;;5013790;28;20427;-83
2021/10/19 07:38:05;;;;;;;9.87;8.83;;;11.00;67.00;;;;;;5015441;28;20419;-83
2021/10/19 07:40:30;;;;;;;12.93;11.53;;;11.00;67.80;;;;;;5033834;28;20209;-83
2021/10/19 07:42:57;;;;;;;11.60;10.60;;;11.10;68.40;;;;;;5015786;28;20863;-83
2021/10/19 07:45:23;;;;;;;12.50;11.30;;;11.10;69.40;;;;;;5015780;28;20549;-83
2021/10/19 07:47:50;;;;;;;15.70;11.63;;;11.20;70.10;;;;;;5015424;28;20470;-81
2021/10/19 07:50:19;;;;;;;12.67;11.47;;;11.20;69.80;;;;;;5015693;28;20430;-80
2021/10/19 07:52:47;;;;;;;14.17;12.73;;;11.30;70.00;;;;;;5015537;28;20458;-79
2021/10/19 07:55:13;;;;;;;14.20;10.93;;;11.30;70.00;;;;;;5015995;28;20424;-81
2021/10/19 07:57:47;;;;;;;11.70;10.70;;;11.40;68.30;;;;;;5015605;28;20442;-81
2021/10/19 08:00:14;;;;;;;10.37;9.47;;;11.40;67.90;;;;;;5015487;28;20438;-80
2021/10/19 08:02:42;;;;;;;17.27;11.60;;;11.40;67.80;;;;;;5015437;28;20426;-80
2021/10/19 08:05:17;;;;;;;12.83;11.57;;;11.40;67.30;;;;;;5015265;28;20689;-80
2021/10/19 08:07:45;;;;;;;11.70;10.60;;;11.40;66.30;;;;;;5015230;28;20466;-79
2021/10/19 08:10:13;;;;;;;12.83;11.10;;;11.40;66.90;;;;;;5015340;28;20411;-80
2021/10/19 08:12:39;;;;;;;15.30;11.47;;;11.50;66.90;;;;;;5014501;28;20431;-83
2021/10/19 08:15:05;;;;;;;12.57;11.27;;;11.50;66.00;;;;;;5015059;28;20467;-83
2021/10/19 08:17:31;;;;;;;16.70;13.13;;;11.50;66.80;;;;;;5015234;28;20238;-83
2021/10/19 08:20:00;;;;;;;11.73;9.90;;;11.60;65.50;;;;;;5015439;28;20894;-82
2021/10/19 08:22:30;;;;;;;16.73;11.23;;;11.50;65.30;;;;;;5015140;28;20423;-82
2021/10/19 08:24:57;;;;;;;13.33;10.20;;;11.50;64.50;;;;;;5015005;28;20581;-82
2021/10/19 08:27:24;;;;;;;11.50;9.87;;;11.50;64.70;;;;;;5027443;28;20445;-82
2021/10/19 08:29:50;;;;;;;13.50;12.10;;;11.50;65.40;;;;;;5034880;28;20829;-82
2021/10/19 08:32:19;;;;;;;11.53;10.43;;;11.60;64.60;;;;;;5034918;28;20454;-82
2021/10/19 08:34:45;;;;;;;12.17;10.90;;;11.60;63.70;;;;;;5034960;28;20430;-82
2021/10/19 08:37:12;;;;;;;11.43;9.97;;;11.50;63.60;;;;;;5034347;28;20551;-82
2021/10/19 08:39:37;;;;;;;14.57;13.30;;;11.60;64.10;;;;;;5034741;28;20980;-82
2021/10/19 08:42:03;;;;;;;12.23;11.07;;;11.60;65.50;;;;;;5034455;28;20423;-83
2021/10/19 08:44:29;;;;;;;14.33;11.20;;;11.60;65.50;;;;;;5034580;28;20564;-82
2021/10/19 08:46:55;;;;;;;11.60;10.50;;;11.50;64.30;;;;;;5034296;28;20172;-82
2021/10/19 08:49:21;;;;;;;12.10;11.00;;;11.50;66.10;;;;;;5034491;28;20426;-82
2021/10/19 08:51:47;;;;;;;12.07;10.37;;;11.40;67.00;;;;;;5034408;28;20229;-82
2021/10/19 08:54:13;;;;;;;12.87;10.60;;;11.40;69.20;;;;;;5034259;28;20430;-82
2021/10/19 08:56:40;;;;;;;14.70;11.50;;;11.30;69.70;;;;;;5034165;28;20444;-82
2021/10/19 08:59:07;;;;;;;12.20;11.10;;;11.30;72.40;;;;;;5034058;28;20209;-82
2021/10/19 09:01:37;;;;;;;12.23;11.20;;;11.30;72.70;;;;;;5034623;28;20430;-82
2021/10/19 09:04:09;;;;;;;13.53;12.23;;;11.30;72.90;;;;;;5051998;28;20458;-82
2021/10/19 09:06:36;;;;;;;14.73;12.40;;;11.30;72.40;;;;;;5034229;28;20782;-83
2021/10/19 09:09:09;;;;;;;13.83;12.40;;;11.30;73.40;;;;;;5034557;28;20473;-83
2021/10/19 09:11:47;;;;;;;14.27;12.47;;;11.30;72.90;;;;;;5033789;28;20411;-82
2021/10/19 09:14:14;;;;;;;16.83;13.67;;;11.30;74.90;;;;;;5034292;28;20426;-84
2021/10/19 09:16:40;;;;;;;12.50;11.20;;;11.30;76.50;;;;;;5033793;28;20814;-83
2021/10/19 09:19:05;;;;;;;12.20;11.03;;;11.40;76.90;;;;;;5050780;28;20568;-84
2021/10/19 09:21:31;;;;;;;13.30;11.53;;;11.40;78.10;;;;;;5033862;28;20266;-83
2021/10/19 09:24:15;;;;;;;9.80;7.87;;;11.50;77.60;;;;;;5033724;28;20559;-83
2021/10/19 09:27:00;;;;;;;7.23;5.90;;;11.70;74.70;;;;;;5033657;28;20187;-83
2021/10/19 09:29:28;;;;;;;5.93;5.40;;;12.00;71.30;;;;;;5034025;28;20830;-80
2021/10/19 09:31:56;;;;;;;17.20;7.27;;;12.10;70.70;;;;;;5033864;28;20426;-82
2021/10/19 09:34:22;;;;;;;5.67;5.10;;;12.20;68.30;;;;;;5034063;28;20911;-82
2021/10/19 09:36:52;;;;;;;5.93;5.17;;;12.30;69.30;;;;;;5018840;28;20426;-83
2021/10/19 09:39:40;;;;;;;5.93;5.43;;;12.40;66.60;;;;;;5027301;28;20423;-83
2021/10/19 09:42:27;;;;;;;5.33;4.83;;;12.40;67.60;;;;;;5010696;28;20814;-83
2021/10/19 09:44:57;;;;;;;6.10;5.50;;;12.60;65.50;;;;;;5030716;28;20494;-83
2021/10/19 09:47:37;;;;;;;5.00;4.50;;;12.50;67.90;;;;;;5013897;28;20415;-83
2021/10/19 09:50:04;;;;;;;5.37;4.87;;;12.50;69.60;;;;;;5013528;28;20423;-83
2021/10/19 09:52:37;;;;;;;5.53;5.10;;;12.50;72.10;;;;;;5014133;28;20918;-83
2021/10/19 09:55:10;;;;;;;5.47;4.97;;;12.50;73.50;;;;;;5013860;28;20423;-83
2021/10/19 09:57:42;;;;;;;5.17;4.77;;;12.50;74.00;;;;;;5013325;28;20419;-83
2021/10/19 10:00:09;;;;;;;5.40;4.87;;;12.40;75.60;;;;;;5013749;28;20469;-83
2021/10/19 10:02:36;;;;;;;5.03;3.97;;;12.50;74.40;;;;;;5014014;28;20514;-83
2021/10/19 10:05:04;;;;;;;6.30;4.87;;;12.50;74.30;;;;;;5013303;28;20500;-83
2021/10/19 10:07:31;;;;;;;5.20;4.70;;;12.60;74.90;;;;;;5013623;28;20420;-82
2021/10/19 10:10:04;;;;;;;4.93;4.27;;;12.60;73.60;;;;;;5013231;28;20431;-83
2021/10/19 10:12:34;;;;;;;4.40;4.00;;;12.70;71.20;;;;;;5013178;28;20796;-83
2021/10/19 10:14:59;;;;;;;4.70;4.30;;;12.70;72.90;;;;;;5013988;28;20910;-83
2021/10/19 10:17:25;;;;;;;4.07;3.77;;;12.70;71.20;;;;;;5013626;28;20455;-82
2021/10/19 10:19:52;;;;;;;5.72;4.50;;;12.80;70.20;;;;;;5012529;28;20445;-81
2021/10/19 10:22:31;;;;;;;6.80;4.07;;;12.90;69.50;;;;;;5013317;28;20181;-79
2021/10/19 10:25:13;;;;;;;4.90;4.00;;;13.00;71.50;;;;;;5013742;28;20854;-80
2021/10/19 10:27:40;;;;;;;4.17;3.80;;;13.00;71.00;;;;;;5013727;28;20416;-82
2021/10/19 10:30:21;;;;;;;4.40;4.00;;;13.10;68.20;;;;;;5013803;28;20473;-81
2021/10/19 10:32:47;;;;;;;4.20;3.90;;;13.00;68.30;;;;;;5013757;28;20419;-83
2021/10/19 10:35:16;;;;;;;4.70;4.20;;;13.10;67.80;;;;;;5013457;28;20419;-83
2021/10/19 10:37:54;;;;;;;3.47;3.17;;;13.10;69.10;;;;;;5017217;28;20187;-82
2021/10/19 10:40:31;;;;;;;3.60;3.30;;;13.20;68.10;;;;;;5017098;28;20419;-82
2021/10/19 10:43:00;;;;;;;4.10;3.77;;;13.20;69.00;;;;;;5017318;28;20411;-80
2021/10/19 10:45:32;;;;;;;5.97;4.10;;;13.30;69.30;;;;;;5017032;28;20451;-82
2021/10/19 10:48:04;;;;;;;5.20;3.80;;;13.20;69.20;;;;;;5017213;28;20473;-82
2021/10/19 10:50:32;;;;;;;4.23;3.57;;;13.30;69.30;;;;;;5017370;28;20414;-82
2021/10/19 10:52:58;;;;;;;3.40;3.10;;;13.30;68.60;;;;;;5035276;28;20502;-82
2021/10/19 10:55:24;;;;;;;3.70;3.40;;;13.30;68.50;;;;;;5035582;28;20491;-82
2021/10/19 10:57:50;;;;;;;4.00;3.70;;;13.30;67.60;;;;;;5052441;28;20987;-83
2021/10/19 11:00:25;;;;;;;3.60;3.03;;;13.30;68.80;;;;;;5033219;28;20279;-83
2021/10/19 11:03:09;;;;;;;3.97;3.67;;;13.30;69.10;;;;;;5017175;28;20648;-83
2021/10/19 11:05:37;;;;;;;5.00;3.50;;;13.30;70.90;;;;;;5016739;28;20787;-82
2021/10/19 11:08:03;;;;;;;4.00;3.60;;;13.30;70.50;;;;;;5016635;28;20411;-83
2021/10/19 11:10:29;;;;;;;4.10;3.80;;;13.30;71.30;;;;;;5016879;28;20579;-83
2021/10/19 11:13:02;;;;;;;3.40;3.10;;;13.30;71.50;;;;;;5016706;28;20959;-82
2021/10/19 11:15:28;;;;;;;3.97;3.67;;;13.30;71.50;;;;;;5017113;28;20181;-82
2021/10/19 11:17:56;;;;;;;3.70;3.40;;;13.30;69.80;;;;;;5016209;28;20428;-83
2021/10/19 11:20:24;;;;;;;4.50;4.10;;;13.40;69.80;;;;;;5016689;28;20419;-83
2021/10/19 11:22:49;;;;;;;3.67;3.33;;;13.40;69.40;;;;;;5016110;28;20427;-83
2021/10/19 11:25:16;;;;;;;3.80;3.50;;;13.40;69.60;;;;;;5016414;28;20455;-83
2021/10/19 11:27:43;;;;;;;3.47;3.17;;;13.50;70.00;;;;;;5016295;28;20184;-83
2021/10/19 11:30:10;;;;;;;4.30;3.83;;;13.50;70.20;;;;;;5016308;28;20950;-83
2021/10/19 11:32:36;;;;;;;4.63;3.90;;;13.50;70.10;;;;;;5016328;28;20408;-83
2021/10/19 11:35:05;;;;;;;4.30;3.90;;;13.50;70.50;;;;;;5016928;28;20526;-83
2021/10/19 11:37:31;;;;;;;5.50;3.57;;;13.50;69.50;;;;;;5016551;28;20443;-83
2021/10/19 11:40:04;;;;;;;3.93;3.63;;;13.60;69.60;;;;;;5016504;28;20889;-82
2021/10/19 11:42:44;;;;;;;3.53;3.23;;;13.60;68.40;;;;;;5016782;28;20427;-82
2021/10/19 11:45:11;;;;;;;3.10;2.90;;;13.60;67.80;;;;;;5016624;28;20971;-82
2021/10/19 11:47:49;;;;;;;4.03;3.63;;;13.70;69.20;;;;;;5015678;28;20465;-80
2021/10/19 11:50:17;;;;;;;4.53;4.13;;;13.70;68.80;;;;;;5016056;28;20411;-79
2021/10/19 11:52:43;;;;;;;4.30;3.17;;;13.80;66.80;;;;;;5034174;28;20885;-79
2021/10/19 11:55:09;;;;;;;4.27;3.87;;;13.80;66.90;;;;;;5033802;28;20443;-79
2021/10/19 11:57:38;;;;;;;4.73;4.40;;;13.80;65.70;;;;;;5015956;28;20426;-80
2021/10/19 12:00:06;;;;;;;4.80;3.57;;;13.90;67.40;;;;;;5015803;28;20427;-81
2021/10/19 12:02:32;;;;;;;3.97;3.67;;;13.90;68.40;;;;;;5015068;28;20416;-79
2021/10/19 12:05:05;;;;;;;3.67;3.37;;;14.00;64.90;;;;;;5033663;28;20959;-79
2021/10/19 12:07:31;;;;;;;5.63;2.83;;;14.00;65.90;;;;;;5015494;28;20226;-80
2021/10/19 12:10:08;;;;;;;3.53;3.23;;;14.00;64.00;;;;;;5016009;28;20519;-80
2021/10/19 12:12:34;;;;;;;3.63;3.33;;;14.00;65.50;;;;;;5015809;28;20431;-81
2021/10/19 12:14:59;;;;;;;4.13;3.63;;;14.00;65.00;;;;;;5016235;28;20427;-81
2021/10/19 12:17:25;;;;;;;4.10;3.80;;;14.00;63.40;;;;;;5016081;28;20271;-82
2021/10/19 12:19:57;;;;;;;3.60;3.13;;;14.00;64.10;;;;;;5016087;28;20176;-83
2021/10/19 12:22:33;;;;;;;4.03;3.63;;;14.10;62.20;;;;;;5015909;28;20183;-82
2021/10/19 12:24:59;;;;;;;3.90;3.50;;;14.10;63.10;;;;;;5015687;28;20470;-82
2021/10/19 12:27:27;;;;;;;3.27;2.93;;;14.10;62.80;;;;;;5015271;28;20466;-81
2021/10/19 12:29:55;;;;;;;3.97;3.03;;;14.10;62.90;;;;;;5015708;28;20173;-82
2021/10/19 12:32:33;;;;;;;3.60;3.27;;;14.00;61.40;;;;;;5015879;28;20755;-82
2021/10/19 12:35:01;;;;;;;4.40;4.00;;;14.00;64.00;;;;;;5015809;28;20427;-82
2021/10/19 12:37:32;;;;;;;3.40;3.10;;;14.00;66.30;;;;;;5015462;28;20419;-82